sensor_id;sensor_type;location;lat;lon;timestamp;P1;durP1;ratioP1;P2;durP2;ratioP2
10410;SDS011;5251;52.112;8.606;2022-09-12T00:02:19;6.93;;;6.18;;
10410;SDS011;5251;52.112;8.606;2022-09-12T00:04:45;7.55;;;6.75;;
10410;SDS011;5251;52.112;8.606;2022-09-12T00:07:10;8.57;;;6.75;;
10410;SDS011;5251;52.112;8.606;2022-09-12T00:09:36;7.38;;;6.68;;
10410;SDS011;5251;52.112;8.606;2022-09-12T00:12:02;7.65;;;6.63;;
10410;SDS011;5251;52.112;8.606;2022-09-12T00:14:28;7.15;;;6.40;;
10410;SDS011;5251;52.112;8.606;2022-09-12T00:16:56;5.90;;;5.30;;
10410;SDS011;5251;52.112;8.606;2022-09-12T00:19:23;7.47;;;5.97;;
10410;SDS011;5251;52.112;8.606;2022-09-12T00:21:49;8.18;;;6.22;;
10410;SDS011;5251;52.112;8.606;2022-09-12T00:24:14;8.82;;;6.90;;
10410;SDS011;5251;52.112;8.606;2022-09-12T00:26:40;7.82;;;6.90;;
10410;SDS011;5251;52.112;8.606;2022-09-12T00:29:05;8.02;;;7.22;;
10410;SDS011;5251;52.112;8.606;2022-09-12T00:31:31;8.52;;;7.50;;
10410;SDS011;5251;52.112;8.606;2022-09-12T00:33:58;8.95;;;7.22;;
10410;SDS011;5251;52.112;8.606;2022-09-12T00:36:25;7.97;;;7.18;;
10410;SDS011;5251;52.112;8.606;2022-09-12T00:38:52;7.38;;;6.68;;
10410;SDS011;5251;52.112;8.606;2022-09-12T00:41:20;7.88;;;7.05;;
10410;SDS011;5251;52.112;8.606;2022-09-12T00:43:49;8.25;;;7.13;;
10410;SDS011;5251;52.112;8.606;2022-09-12T00:46:37;7.60;;;6.60;;
10410;SDS011;5251;52.112;8.606;2022-09-12T00:49:32;7.53;;;6.82;;
10410;SDS011;5251;52.112;8.606;2022-09-12T00:57:33;7.95;;;7.15;;
10410;SDS011;5251;52.112;8.606;2022-09-12T01:00:09;8.20;;;7.18;;
10410;SDS011;5251;52.112;8.606;2022-09-12T01:02:40;8.57;;;7.68;;
10410;SDS011;5251;52.112;8.606;2022-09-12T01:05:08;8.60;;;7.70;;
10410;SDS011;5251;52.112;8.606;2022-09-12T01:07:36;8.35;;;6.65;;
10410;SDS011;5251;52.112;8.606;2022-09-12T01:10:03;9.38;;;7.72;;
10410;SDS011;5251;52.112;8.606;2022-09-12T01:12:30;7.70;;;6.63;;
10410;SDS011;5251;52.112;8.606;2022-09-12T01:14:57;7.32;;;6.63;;
10410;SDS011;5251;52.112;8.606;2022-09-12T01:17:23;8.60;;;7.00;;
10410;SDS011;5251;52.112;8.606;2022-09-12T01:20:18;8.30;;;7.05;;
10410;SDS011;5251;52.112;8.606;2022-09-12T01:26:10;8.02;;;6.93;;
10410;SDS011;5251;52.112;8.606;2022-09-12T01:31:28;9.38;;;6.70;;
10410;SDS011;5251;52.112;8.606;2022-09-12T01:42:18;7.93;;;7.00;;
10410;SDS011;5251;52.112;8.606;2022-09-12T01:44:59;7.70;;;6.90;;
10410;SDS011;5251;52.112;8.606;2022-09-12T01:47:51;9.18;;;7.63;;
10410;SDS011;5251;52.112;8.606;2022-09-12T01:50:33;8.65;;;7.30;;
10410;SDS011;5251;52.112;8.606;2022-09-12T01:53:07;8.15;;;7.35;;
10410;SDS011;5251;52.112;8.606;2022-09-12T01:55:43;8.15;;;6.55;;
10410;SDS011;5251;52.112;8.606;2022-09-12T02:01:28;10.95;;;7.63;;
10410;SDS011;5251;52.112;8.606;2022-09-12T02:06:42;9.35;;;8.10;;
10410;SDS011;5251;52.112;8.606;2022-09-12T02:09:17;10.25;;;7.55;;
10410;SDS011;5251;52.112;8.606;2022-09-12T02:11:43;10.18;;;7.30;;
10410;SDS011;5251;52.112;8.606;2022-09-12T02:14:13;22.92;;;7.97;;
10410;SDS011;5251;52.112;8.606;2022-09-12T02:16:54;16.92;;;8.05;;
10410;SDS011;5251;52.112;8.606;2022-09-12T02:19:29;12.95;;;8.13;;
10410;SDS011;5251;52.112;8.606;2022-09-12T02:22:01;13.50;;;7.07;;
10410;SDS011;5251;52.112;8.606;2022-09-12T02:24:32;8.95;;;6.22;;
10410;SDS011;5251;52.112;8.606;2022-09-12T02:27:11;7.00;;;5.93;;
10410;SDS011;5251;52.112;8.606;2022-09-12T02:29:41;6.55;;;5.95;;
10410;SDS011;5251;52.112;8.606;2022-09-12T02:32:15;7.40;;;6.30;;
10410;SDS011;5251;52.112;8.606;2022-09-12T02:35:08;8.73;;;6.90;;
10410;SDS011;5251;52.112;8.606;2022-09-12T02:40:31;8.55;;;7.03;;
10410;SDS011;5251;52.112;8.606;2022-09-12T02:42:58;10.10;;;7.38;;
10410;SDS011;5251;52.112;8.606;2022-09-12T02:45:24;8.70;;;7.80;;
10410;SDS011;5251;52.112;8.606;2022-09-12T02:47:51;11.75;;;9.18;;
10410;SDS011;5251;52.112;8.606;2022-09-12T02:50:23;10.43;;;8.82;;
10410;SDS011;5251;52.112;8.606;2022-09-12T02:52:49;12.18;;;9.50;;
10410;SDS011;5251;52.112;8.606;2022-09-12T02:55:18;11.38;;;9.35;;
10410;SDS011;5251;52.112;8.606;2022-09-12T02:57:44;9.95;;;7.82;;
10410;SDS011;5251;52.112;8.606;2022-09-12T03:00:10;9.30;;;8.20;;
10410;SDS011;5251;52.112;8.606;2022-09-12T03:05:28;10.20;;;8.02;;
10410;SDS011;5251;52.112;8.606;2022-09-12T03:08:01;10.20;;;8.20;;
10410;SDS011;5251;52.112;8.606;2022-09-12T03:10:55;11.23;;;8.07;;
10410;SDS011;5251;52.112;8.606;2022-09-12T03:16:16;16.42;;;9.98;;
10410;SDS011;5251;52.112;8.606;2022-09-12T03:19:12;12.00;;;10.27;;
10410;SDS011;5251;52.112;8.606;2022-09-12T03:24:16;11.27;;;9.45;;
10410;SDS011;5251;52.112;8.606;2022-09-12T03:29:22;12.05;;;8.73;;
10410;SDS011;5251;52.112;8.606;2022-09-12T03:31:51;9.73;;;8.32;;
10410;SDS011;5251;52.112;8.606;2022-09-12T03:34:19;8.80;;;7.90;;
10410;SDS011;5251;52.112;8.606;2022-09-12T03:36:45;8.88;;;7.50;;
10410;SDS011;5251;52.112;8.606;2022-09-12T03:39:11;9.40;;;8.38;;
10410;SDS011;5251;52.112;8.606;2022-09-12T03:41:37;9.38;;;7.45;;
10410;SDS011;5251;52.112;8.606;2022-09-12T03:44:03;8.23;;;7.30;;
10410;SDS011;5251;52.112;8.606;2022-09-12T03:46:29;10.25;;;7.30;;
10410;SDS011;5251;52.112;8.606;2022-09-12T03:48:54;8.68;;;7.43;;
10410;SDS011;5251;52.112;8.606;2022-09-12T03:51:20;10.10;;;8.05;;
10410;SDS011;5251;52.112;8.606;2022-09-12T03:53:46;9.35;;;7.50;;
10410;SDS011;5251;52.112;8.606;2022-09-12T03:56:12;8.30;;;7.45;;
10410;SDS011;5251;52.112;8.606;2022-09-12T03:58:38;9.85;;;7.60;;
10410;SDS011;5251;52.112;8.606;2022-09-12T04:01:11;8.07;;;7.28;;
10410;SDS011;5251;52.112;8.606;2022-09-12T04:03:39;8.35;;;7.28;;
10410;SDS011;5251;52.112;8.606;2022-09-12T04:06:06;8.43;;;7.07;;
10410;SDS011;5251;52.112;8.606;2022-09-12T04:08:33;8.88;;;7.80;;
10410;SDS011;5251;52.112;8.606;2022-09-12T04:11:03;9.15;;;7.65;;
10410;SDS011;5251;52.112;8.606;2022-09-12T04:13:30;8.35;;;7.40;;
10410;SDS011;5251;52.112;8.606;2022-09-12T04:15:59;10.80;;;9.18;;
10410;SDS011;5251;52.112;8.606;2022-09-12T04:18:25;10.85;;;8.85;;
10410;SDS011;5251;52.112;8.606;2022-09-12T04:20:51;13.10;;;9.85;;
10410;SDS011;5251;52.112;8.606;2022-09-12T04:23:17;11.13;;;9.77;;
10410;SDS011;5251;52.112;8.606;2022-09-12T04:25:43;12.25;;;9.90;;
10410;SDS011;5251;52.112;8.606;2022-09-12T04:28:17;13.30;;;9.68;;
10410;SDS011;5251;52.112;8.606;2022-09-12T04:30:42;11.80;;;9.68;;
10410;SDS011;5251;52.112;8.606;2022-09-12T04:33:08;11.23;;;9.63;;
10410;SDS011;5251;52.112;8.606;2022-09-12T04:35:34;12.00;;;9.07;;
10410;SDS011;5251;52.112;8.606;2022-09-12T04:38:00;11.10;;;9.82;;
10410;SDS011;5251;52.112;8.606;2022-09-12T04:40:27;10.70;;;9.05;;
10410;SDS011;5251;52.112;8.606;2022-09-12T04:42:53;13.00;;;9.13;;
10410;SDS011;5251;52.112;8.606;2022-09-12T04:45:20;10.77;;;9.38;;
10410;SDS011;5251;52.112;8.606;2022-09-12T04:47:46;11.25;;;9.48;;
10410;SDS011;5251;52.112;8.606;2022-09-12T04:50:12;11.50;;;9.65;;
10410;SDS011;5251;52.112;8.606;2022-09-12T04:52:39;11.52;;;9.43;;
10410;SDS011;5251;52.112;8.606;2022-09-12T04:55:05;12.05;;;9.60;;
10410;SDS011;5251;52.112;8.606;2022-09-12T04:57:31;11.82;;;9.52;;
10410;SDS011;5251;52.112;8.606;2022-09-12T04:59:57;11.85;;;9.90;;
10410;SDS011;5251;52.112;8.606;2022-09-12T05:02:23;12.13;;;10.30;;
10410;SDS011;5251;52.112;8.606;2022-09-12T05:04:49;12.43;;;9.93;;
10410;SDS011;5251;52.112;8.606;2022-09-12T05:07:15;12.70;;;10.27;;
10410;SDS011;5251;52.112;8.606;2022-09-12T05:09:41;12.98;;;9.63;;
10410;SDS011;5251;52.112;8.606;2022-09-12T05:12:06;11.93;;;10.48;;
10410;SDS011;5251;52.112;8.606;2022-09-12T05:14:33;12.27;;;10.55;;
10410;SDS011;5251;52.112;8.606;2022-09-12T05:16:59;11.88;;;10.18;;
10410;SDS011;5251;52.112;8.606;2022-09-12T05:19:26;15.00;;;10.95;;
10410;SDS011;5251;52.112;8.606;2022-09-12T05:21:52;12.60;;;10.48;;
10410;SDS011;5251;52.112;8.606;2022-09-12T05:24:17;11.73;;;9.18;;
10410;SDS011;5251;52.112;8.606;2022-09-12T05:26:43;10.15;;;8.65;;
10410;SDS011;5251;52.112;8.606;2022-09-12T05:29:09;13.15;;;9.95;;
10410;SDS011;5251;52.112;8.606;2022-09-12T05:31:34;12.60;;;10.05;;
10410;SDS011;5251;52.112;8.606;2022-09-12T05:34:00;13.63;;;10.45;;
10410;SDS011;5251;52.112;8.606;2022-09-12T05:36:30;13.70;;;10.77;;
10410;SDS011;5251;52.112;8.606;2022-09-12T05:38:58;13.73;;;10.50;;
10410;SDS011;5251;52.112;8.606;2022-09-12T05:41:25;13.75;;;10.30;;
10410;SDS011;5251;52.112;8.606;2022-09-12T05:43:54;15.15;;;11.23;;
10410;SDS011;5251;52.112;8.606;2022-09-12T05:46:22;11.98;;;9.95;;
10410;SDS011;5251;52.112;8.606;2022-09-12T05:48:49;13.93;;;10.50;;
10410;SDS011;5251;52.112;8.606;2022-09-12T05:51:16;13.10;;;10.75;;
10410;SDS011;5251;52.112;8.606;2022-09-12T05:53:54;13.70;;;11.45;;
10410;SDS011;5251;52.112;8.606;2022-09-12T05:56:22;12.68;;;10.88;;
10410;SDS011;5251;52.112;8.606;2022-09-12T05:58:57;14.02;;;11.07;;
10410;SDS011;5251;52.112;8.606;2022-09-12T06:01:28;11.55;;;10.35;;
10410;SDS011;5251;52.112;8.606;2022-09-12T06:03:55;12.50;;;10.45;;
10410;SDS011;5251;52.112;8.606;2022-09-12T06:06:22;12.00;;;10.38;;
10410;SDS011;5251;52.112;8.606;2022-09-12T06:08:50;12.98;;;11.07;;
10410;SDS011;5251;52.112;8.606;2022-09-12T06:11:18;12.57;;;10.25;;
10410;SDS011;5251;52.112;8.606;2022-09-12T06:13:45;14.57;;;11.00;;
10410;SDS011;5251;52.112;8.606;2022-09-12T06:16:12;13.98;;;10.38;;
10410;SDS011;5251;52.112;8.606;2022-09-12T06:18:46;13.80;;;10.68;;
10410;SDS011;5251;52.112;8.606;2022-09-12T06:21:13;12.63;;;10.52;;
10410;SDS011;5251;52.112;8.606;2022-09-12T06:23:39;13.85;;;11.40;;
10410;SDS011;5251;52.112;8.606;2022-09-12T06:26:05;16.48;;;10.65;;
10410;SDS011;5251;52.112;8.606;2022-09-12T06:28:36;13.25;;;10.63;;
10410;SDS011;5251;52.112;8.606;2022-09-12T06:31:06;15.13;;;10.70;;
10410;SDS011;5251;52.112;8.606;2022-09-12T06:33:34;15.88;;;11.30;;
10410;SDS011;5251;52.112;8.606;2022-09-12T06:36:04;13.40;;;10.88;;
10410;SDS011;5251;52.112;8.606;2022-09-12T06:38:34;13.00;;;10.52;;
10410;SDS011;5251;52.112;8.606;2022-09-12T06:41:03;13.27;;;10.68;;
10410;SDS011;5251;52.112;8.606;2022-09-12T06:43:31;12.02;;;10.30;;
10410;SDS011;5251;52.112;8.606;2022-09-12T06:45:57;13.07;;;10.82;;
10410;SDS011;5251;52.112;8.606;2022-09-12T06:48:23;14.23;;;11.65;;
10410;SDS011;5251;52.112;8.606;2022-09-12T06:50:59;13.65;;;11.45;;
10410;SDS011;5251;52.112;8.606;2022-09-12T06:53:27;13.52;;;11.32;;
10410;SDS011;5251;52.112;8.606;2022-09-12T06:55:57;14.98;;;12.43;;
10410;SDS011;5251;52.112;8.606;2022-09-12T06:58:24;14.10;;;11.55;;
10410;SDS011;5251;52.112;8.606;2022-09-12T07:00:52;13.73;;;11.55;;
10410;SDS011;5251;52.112;8.606;2022-09-12T07:03:18;13.65;;;11.10;;
10410;SDS011;5251;52.112;8.606;2022-09-12T07:05:44;15.07;;;12.20;;
10410;SDS011;5251;52.112;8.606;2022-09-12T07:08:10;13.07;;;10.77;;
10410;SDS011;5251;52.112;8.606;2022-09-12T07:10:35;13.07;;;11.20;;
10410;SDS011;5251;52.112;8.606;2022-09-12T07:13:01;12.88;;;10.93;;
10410;SDS011;5251;52.112;8.606;2022-09-12T07:15:27;13.02;;;10.43;;
10410;SDS011;5251;52.112;8.606;2022-09-12T07:17:53;11.40;;;10.20;;
10410;SDS011;5251;52.112;8.606;2022-09-12T07:20:18;10.90;;;9.77;;
10410;SDS011;5251;52.112;8.606;2022-09-12T07:22:44;13.50;;;10.05;;
10410;SDS011;5251;52.112;8.606;2022-09-12T07:25:10;11.13;;;9.98;;
10410;SDS011;5251;52.112;8.606;2022-09-12T07:27:36;11.38;;;10.18;;
10410;SDS011;5251;52.112;8.606;2022-09-12T07:30:02;11.70;;;9.70;;
10410;SDS011;5251;52.112;8.606;2022-09-12T07:32:31;11.15;;;9.82;;
10410;SDS011;5251;52.112;8.606;2022-09-12T07:34:57;9.90;;;8.90;;
10410;SDS011;5251;52.112;8.606;2022-09-12T07:37:23;10.32;;;8.95;;
10410;SDS011;5251;52.112;8.606;2022-09-12T07:39:48;10.70;;;8.55;;
10410;SDS011;5251;52.112;8.606;2022-09-12T07:42:14;9.02;;;7.95;;
10410;SDS011;5251;52.112;8.606;2022-09-12T07:44:40;9.93;;;8.50;;
10410;SDS011;5251;52.112;8.606;2022-09-12T07:47:06;9.73;;;8.27;;
10410;SDS011;5251;52.112;8.606;2022-09-12T07:49:31;8.57;;;7.68;;
10410;SDS011;5251;52.112;8.606;2022-09-12T07:51:57;8.32;;;6.85;;
10410;SDS011;5251;52.112;8.606;2022-09-12T07:54:23;9.02;;;7.60;;
10410;SDS011;5251;52.112;8.606;2022-09-12T07:56:48;7.53;;;6.82;;
10410;SDS011;5251;52.112;8.606;2022-09-12T07:59:14;8.02;;;7.22;;
10410;SDS011;5251;52.112;8.606;2022-09-12T08:01:39;7.72;;;6.93;;
10410;SDS011;5251;52.112;8.606;2022-09-12T08:04:05;7.85;;;6.60;;
10410;SDS011;5251;52.112;8.606;2022-09-12T08:06:32;7.55;;;6.47;;
10410;SDS011;5251;52.112;8.606;2022-09-12T08:08:59;8.20;;;6.63;;
10410;SDS011;5251;52.112;8.606;2022-09-12T08:11:26;9.00;;;6.43;;
10410;SDS011;5251;52.112;8.606;2022-09-12T08:13:53;8.02;;;6.00;;
10410;SDS011;5251;52.112;8.606;2022-09-12T08:16:22;6.88;;;6.18;;
10410;SDS011;5251;52.112;8.606;2022-09-12T08:18:49;7.60;;;6.15;;
10410;SDS011;5251;52.112;8.606;2022-09-12T08:21:19;8.55;;;6.07;;
10410;SDS011;5251;52.112;8.606;2022-09-12T08:23:53;7.88;;;6.38;;
10410;SDS011;5251;52.112;8.606;2022-09-12T08:26:21;7.15;;;5.97;;
10410;SDS011;5251;52.112;8.606;2022-09-12T08:28:48;6.60;;;5.65;;
10410;SDS011;5251;52.112;8.606;2022-09-12T08:31:14;5.72;;;5.13;;
10410;SDS011;5251;52.112;8.606;2022-09-12T08:33:42;5.53;;;4.93;;
10410;SDS011;5251;52.112;8.606;2022-09-12T08:38:42;5.80;;;5.20;;
10410;SDS011;5251;52.112;8.606;2022-09-12T08:46:30;4.72;;;4.32;;
10410;SDS011;5251;52.112;8.606;2022-09-12T08:49:02;6.25;;;4.30;;
10410;SDS011;5251;52.112;8.606;2022-09-12T08:51:30;57.58;;;9.05;;
10410;SDS011;5251;52.112;8.606;2022-09-12T08:53:58;9.90;;;5.47;;
10410;SDS011;5251;52.112;8.606;2022-09-12T08:56:26;6.18;;;4.65;;
10410;SDS011;5251;52.112;8.606;2022-09-12T08:58:56;6.30;;;4.63;;
10410;SDS011;5251;52.112;8.606;2022-09-12T09:09:56;6.32;;;4.43;;
10410;SDS011;5251;52.112;8.606;2022-09-12T09:12:51;4.60;;;3.80;;
10410;SDS011;5251;52.112;8.606;2022-09-12T09:16:16;5.63;;;4.07;;
10410;SDS011;5251;52.112;8.606;2022-09-12T09:19:05;5.40;;;3.72;;
10410;SDS011;5251;52.112;8.606;2022-09-12T09:21:43;4.13;;;3.72;;
10410;SDS011;5251;52.112;8.606;2022-09-12T09:24:35;4.10;;;3.70;;
10410;SDS011;5251;52.112;8.606;2022-09-12T09:27:47;4.05;;;3.67;;
10410;SDS011;5251;52.112;8.606;2022-09-12T09:29:58;4.15;;;3.40;;
10410;SDS011;5251;52.112;8.606;2022-09-12T09:32:27;4.00;;;3.55;;
10410;SDS011;5251;52.112;8.606;2022-09-12T09:34:57;3.53;;;3.22;;
10410;SDS011;5251;52.112;8.606;2022-09-12T09:37:59;5.22;;;3.65;;
10410;SDS011;5251;52.112;8.606;2022-09-12T09:40:43;3.92;;;3.53;;
10410;SDS011;5251;52.112;8.606;2022-09-12T09:43:19;3.72;;;3.33;;
10410;SDS011;5251;52.112;8.606;2022-09-12T09:45:47;3.47;;;3.17;;
10410;SDS011;5251;52.112;8.606;2022-09-12T09:50:48;3.25;;;2.95;;
10410;SDS011;5251;52.112;8.606;2022-09-12T09:53:37;3.33;;;3.00;;
10410;SDS011;5251;52.112;8.606;2022-09-12T09:56:01;4.25;;;3.38;;
10410;SDS011;5251;52.112;8.606;2022-09-12T09:58:34;3.22;;;2.95;;
10410;SDS011;5251;52.112;8.606;2022-09-12T10:01:04;3.33;;;3.03;;
10410;SDS011;5251;52.112;8.606;2022-09-12T10:03:36;3.35;;;3.05;;
10410;SDS011;5251;52.112;8.606;2022-09-12T10:06:07;3.53;;;3.22;;
10410;SDS011;5251;52.112;8.606;2022-09-12T10:08:48;3.53;;;3.00;;
10410;SDS011;5251;52.112;8.606;2022-09-12T10:13:40;3.40;;;3.10;;
10410;SDS011;5251;52.112;8.606;2022-09-12T10:18:52;3.40;;;3.10;;
10410;SDS011;5251;52.112;8.606;2022-09-12T10:21:24;3.30;;;3.00;;
10410;SDS011;5251;52.112;8.606;2022-09-12T10:23:57;3.83;;;3.50;;
10410;SDS011;5251;52.112;8.606;2022-09-12T10:26:24;3.97;;;3.33;;
10410;SDS011;5251;52.112;8.606;2022-09-12T10:28:52;3.58;;;3.00;;
10410;SDS011;5251;52.112;8.606;2022-09-12T10:31:26;3.97;;;3.10;;
10410;SDS011;5251;52.112;8.606;2022-09-12T10:33:57;4.10;;;3.03;;
10410;SDS011;5251;52.112;8.606;2022-09-12T10:36:24;3.35;;;2.90;;
10410;SDS011;5251;52.112;8.606;2022-09-12T10:38:59;3.33;;;2.80;;
10410;SDS011;5251;52.112;8.606;2022-09-12T10:41:26;3.55;;;3.25;;
10410;SDS011;5251;52.112;8.606;2022-09-12T10:44:05;5.60;;;3.10;;
10410;SDS011;5251;52.112;8.606;2022-09-12T10:46:33;3.53;;;2.72;;
10410;SDS011;5251;52.112;8.606;2022-09-12T10:49:11;3.40;;;3.10;;
10410;SDS011;5251;52.112;8.606;2022-09-12T10:51:45;6.93;;;3.47;;
10410;SDS011;5251;52.112;8.606;2022-09-12T10:54:13;4.03;;;3.55;;
10410;SDS011;5251;52.112;8.606;2022-09-12T11:05:54;3.90;;;3.50;;
10410;SDS011;5251;52.112;8.606;2022-09-12T11:08:33;3.50;;;3.20;;
10410;SDS011;5251;52.112;8.606;2022-09-12T11:22:15;3.97;;;3.58;;
10410;SDS011;5251;52.112;8.606;2022-09-12T11:25:10;3.90;;;3.50;;
10410;SDS011;5251;52.112;8.606;2022-09-12T11:30:58;3.88;;;3.40;;
10410;SDS011;5251;52.112;8.606;2022-09-12T11:33:44;3.88;;;3.40;;
10410;SDS011;5251;52.112;8.606;2022-09-12T11:36:33;5.88;;;3.60;;
10410;SDS011;5251;52.112;8.606;2022-09-12T11:39:12;5.63;;;3.78;;
10410;SDS011;5251;52.112;8.606;2022-09-12T11:41:55;4.28;;;3.88;;
10410;SDS011;5251;52.112;8.606;2022-09-12T11:44:25;3.92;;;3.53;;
10410;SDS011;5251;52.112;8.606;2022-09-12T11:47:12;4.78;;;3.95;;
10410;SDS011;5251;52.112;8.606;2022-09-12T11:59:50;3.85;;;3.45;;
10410;SDS011;5251;52.112;8.606;2022-09-12T12:02:24;4.90;;;3.28;;
10410;SDS011;5251;52.112;8.606;2022-09-12T12:05:01;3.58;;;3.22;;
10410;SDS011;5251;52.112;8.606;2022-09-12T12:07:39;3.63;;;3.15;;
10410;SDS011;5251;52.112;8.606;2022-09-12T12:10:20;5.50;;;3.00;;
10410;SDS011;5251;52.112;8.606;2022-09-12T12:12:52;5.10;;;3.13;;
10410;SDS011;5251;52.112;8.606;2022-09-12T12:15:20;3.67;;;3.38;;
10410;SDS011;5251;52.112;8.606;2022-09-12T12:18:14;3.67;;;3.30;;
10410;SDS011;5251;52.112;8.606;2022-09-12T12:20:43;3.40;;;3.10;;
10410;SDS011;5251;52.112;8.606;2022-09-12T12:25:56;3.67;;;3.35;;
10410;SDS011;5251;52.112;8.606;2022-09-12T12:28:54;3.50;;;3.10;;
10410;SDS011;5251;52.112;8.606;2022-09-12T12:31:22;3.28;;;2.97;;
10410;SDS011;5251;52.112;8.606;2022-09-12T12:41:58;4.47;;;3.10;;
10410;SDS011;5251;52.112;8.606;2022-09-12T12:47:18;3.75;;;3.35;;
10410;SDS011;5251;52.112;8.606;2022-09-12T12:49:56;3.30;;;3.00;;
10410;SDS011;5251;52.112;8.606;2022-09-12T12:52:30;3.00;;;2.70;;
10410;SDS011;5251;52.112;8.606;2022-09-12T12:55:12;2.75;;;2.53;;
10410;SDS011;5251;52.112;8.606;2022-09-12T12:57:45;3.05;;;2.80;;
10410;SDS011;5251;52.112;8.606;2022-09-12T13:02:51;3.90;;;3.40;;
10410;SDS011;5251;52.112;8.606;2022-09-12T13:05:25;5.88;;;3.13;;
10410;SDS011;5251;52.112;8.606;2022-09-12T13:07:54;3.20;;;2.90;;
10410;SDS011;5251;52.112;8.606;2022-09-12T13:10:30;3.17;;;2.88;;
10410;SDS011;5251;52.112;8.606;2022-09-12T13:12:57;3.42;;;3.13;;
10410;SDS011;5251;52.112;8.606;2022-09-12T13:18:02;3.53;;;2.92;;
10410;SDS011;5251;52.112;8.606;2022-09-12T13:20:31;3.88;;;3.38;;
10410;SDS011;5251;52.112;8.606;2022-09-12T13:23:00;3.55;;;2.92;;
10410;SDS011;5251;52.112;8.606;2022-09-12T13:25:32;3.40;;;3.10;;
10410;SDS011;5251;52.112;8.606;2022-09-12T13:30:27;4.30;;;3.05;;
10410;SDS011;5251;52.112;8.606;2022-09-12T13:32:56;3.20;;;2.90;;
10410;SDS011;5251;52.112;8.606;2022-09-12T13:40:44;3.03;;;2.72;;
10410;SDS011;5251;52.112;8.606;2022-09-12T13:43:15;3.78;;;2.85;;
10410;SDS011;5251;52.112;8.606;2022-09-12T13:45:46;3.30;;;2.70;;
10410;SDS011;5251;52.112;8.606;2022-09-12T13:48:14;3.00;;;2.70;;
10410;SDS011;5251;52.112;8.606;2022-09-12T13:50:53;3.13;;;2.83;;
10410;SDS011;5251;52.112;8.606;2022-09-12T13:53:24;2.60;;;2.40;;
10410;SDS011;5251;52.112;8.606;2022-09-12T13:55:59;3.80;;;2.83;;
10410;SDS011;5251;52.112;8.606;2022-09-12T13:58:26;3.08;;;2.78;;
10410;SDS011;5251;52.112;8.606;2022-09-12T14:01:04;3.08;;;2.78;;
10410;SDS011;5251;52.112;8.606;2022-09-12T14:04:09;2.97;;;2.70;;
10410;SDS011;5251;52.112;8.606;2022-09-12T14:06:56;2.80;;;2.60;;
10410;SDS011;5251;52.112;8.606;2022-09-12T14:09:24;3.30;;;2.90;;
10410;SDS011;5251;52.112;8.606;2022-09-12T14:11:56;3.33;;;2.80;;
10410;SDS011;5251;52.112;8.606;2022-09-12T14:14:35;3.70;;;3.13;;
10410;SDS011;5251;52.112;8.606;2022-09-12T14:17:22;3.10;;;2.78;;
10410;SDS011;5251;52.112;8.606;2022-09-12T14:19:49;2.75;;;2.53;;
10410;SDS011;5251;52.112;8.606;2022-09-12T14:22:16;3.42;;;2.80;;
10410;SDS011;5251;52.112;8.606;2022-09-12T14:24:45;3.72;;;2.80;;
10410;SDS011;5251;52.112;8.606;2022-09-12T14:27:16;3.30;;;2.92;;
10410;SDS011;5251;52.112;8.606;2022-09-12T14:29:59;3.83;;;2.80;;
10410;SDS011;5251;52.112;8.606;2022-09-12T14:32:26;2.92;;;2.72;;
10410;SDS011;5251;52.112;8.606;2022-09-12T14:35:04;3.17;;;2.97;;
10410;SDS011;5251;52.112;8.606;2022-09-12T14:37:37;3.05;;;2.80;;
10410;SDS011;5251;52.112;8.606;2022-09-12T14:40:13;4.00;;;3.00;;
10410;SDS011;5251;52.112;8.606;2022-09-12T14:42:44;3.45;;;3.15;;
10410;SDS011;5251;52.112;8.606;2022-09-12T14:45:20;3.47;;;2.78;;
10410;SDS011;5251;52.112;8.606;2022-09-12T14:47:52;3.10;;;2.80;;
10410;SDS011;5251;52.112;8.606;2022-09-12T14:50:20;3.65;;;2.97;;
10410;SDS011;5251;52.112;8.606;2022-09-12T14:53:04;3.08;;;2.75;;
10410;SDS011;5251;52.112;8.606;2022-09-12T14:55:56;3.33;;;3.00;;
10410;SDS011;5251;52.112;8.606;2022-09-12T14:58:29;3.30;;;2.97;;
10410;SDS011;5251;52.112;8.606;2022-09-12T15:03:56;3.53;;;2.90;;
10410;SDS011;5251;52.112;8.606;2022-09-12T15:06:38;2.67;;;2.47;;
10410;SDS011;5251;52.112;8.606;2022-09-12T15:09:07;3.40;;;2.65;;
10410;SDS011;5251;52.112;8.606;2022-09-12T15:11:36;3.00;;;2.70;;
10410;SDS011;5251;52.112;8.606;2022-09-12T15:14:06;3.20;;;2.67;;
10410;SDS011;5251;52.112;8.606;2022-09-12T15:16:37;3.47;;;3.08;;
10410;SDS011;5251;52.112;8.606;2022-09-12T15:19:03;3.13;;;2.80;;
10410;SDS011;5251;52.112;8.606;2022-09-12T15:21:29;3.30;;;3.00;;
10410;SDS011;5251;52.112;8.606;2022-09-12T15:23:54;3.22;;;2.85;;
10410;SDS011;5251;52.112;8.606;2022-09-12T15:26:21;3.60;;;3.10;;
10410;SDS011;5251;52.112;8.606;2022-09-12T15:28:50;3.38;;;3.08;;
10410;SDS011;5251;52.112;8.606;2022-09-12T15:33:53;2.83;;;2.55;;
10410;SDS011;5251;52.112;8.606;2022-09-12T15:36:20;3.20;;;2.67;;
10410;SDS011;5251;52.112;8.606;2022-09-12T15:38:47;2.78;;;2.58;;
10410;SDS011;5251;52.112;8.606;2022-09-12T15:41:15;3.50;;;3.20;;
10410;SDS011;5251;52.112;8.606;2022-09-12T15:43:43;3.22;;;2.92;;
10410;SDS011;5251;52.112;8.606;2022-09-12T15:46:10;2.92;;;2.70;;
10410;SDS011;5251;52.112;8.606;2022-09-12T15:48:37;2.95;;;2.75;;
10410;SDS011;5251;52.112;8.606;2022-09-12T15:51:03;3.72;;;2.80;;
10410;SDS011;5251;52.112;8.606;2022-09-12T15:53:29;3.58;;;2.90;;
10410;SDS011;5251;52.112;8.606;2022-09-12T15:55:55;3.00;;;2.70;;
10410;SDS011;5251;52.112;8.606;2022-09-12T15:58:21;3.10;;;2.80;;
10410;SDS011;5251;52.112;8.606;2022-09-12T16:00:47;3.17;;;2.88;;
10410;SDS011;5251;52.112;8.606;2022-09-12T16:03:18;3.70;;;3.28;;
10410;SDS011;5251;52.112;8.606;2022-09-12T16:05:47;3.42;;;3.13;;
10410;SDS011;5251;52.112;8.606;2022-09-12T16:08:13;3.17;;;2.88;;
10410;SDS011;5251;52.112;8.606;2022-09-12T16:10:38;3.20;;;2.90;;
10410;SDS011;5251;52.112;8.606;2022-09-12T16:13:07;3.20;;;2.88;;
10410;SDS011;5251;52.112;8.606;2022-09-12T16:15:33;2.95;;;2.63;;
10410;SDS011;5251;52.112;8.606;2022-09-12T16:17:58;3.42;;;3.13;;
10410;SDS011;5251;52.112;8.606;2022-09-12T16:20:24;3.10;;;2.80;;
10410;SDS011;5251;52.112;8.606;2022-09-12T16:22:50;3.35;;;3.05;;
10410;SDS011;5251;52.112;8.606;2022-09-12T16:25:16;3.03;;;2.80;;
10410;SDS011;5251;52.112;8.606;2022-09-12T16:27:42;3.25;;;2.95;;
10410;SDS011;5251;52.112;8.606;2022-09-12T16:30:07;3.70;;;3.28;;
10410;SDS011;5251;52.112;8.606;2022-09-12T16:32:34;3.60;;;2.90;;
10410;SDS011;5251;52.112;8.606;2022-09-12T16:35:00;3.33;;;2.90;;
10410;SDS011;5251;52.112;8.606;2022-09-12T16:37:26;4.13;;;3.10;;
10410;SDS011;5251;52.112;8.606;2022-09-12T16:39:52;3.45;;;3.15;;
10410;SDS011;5251;52.112;8.606;2022-09-12T16:42:18;3.75;;;2.63;;
10410;SDS011;5251;52.112;8.606;2022-09-12T16:44:44;3.42;;;2.97;;
10410;SDS011;5251;52.112;8.606;2022-09-12T16:47:10;3.42;;;3.13;;
10410;SDS011;5251;52.112;8.606;2022-09-12T16:49:37;3.15;;;2.85;;
10410;SDS011;5251;52.112;8.606;2022-09-12T16:52:02;3.60;;;3.28;;
10410;SDS011;5251;52.112;8.606;2022-09-12T16:54:28;3.28;;;2.97;;
10410;SDS011;5251;52.112;8.606;2022-09-12T16:56:54;3.22;;;2.92;;
10410;SDS011;5251;52.112;8.606;2022-09-12T16:59:19;4.10;;;3.25;;
10410;SDS011;5251;52.112;8.606;2022-09-12T17:01:45;3.60;;;3.22;;
10410;SDS011;5251;52.112;8.606;2022-09-12T17:04:11;3.58;;;3.22;;
10410;SDS011;5251;52.112;8.606;2022-09-12T17:06:36;4.55;;;3.03;;
10410;SDS011;5251;52.112;8.606;2022-09-12T17:09:03;4.28;;;2.90;;
10410;SDS011;5251;52.112;8.606;2022-09-12T17:11:30;6.07;;;3.38;;
10410;SDS011;5251;52.112;8.606;2022-09-12T17:13:59;3.88;;;2.83;;
10410;SDS011;5251;52.112;8.606;2022-09-12T17:16:25;6.32;;;3.05;;
10410;SDS011;5251;52.112;8.606;2022-09-12T17:18:52;2.97;;;2.75;;
10410;SDS011;5251;52.112;8.606;2022-09-12T17:21:19;4.55;;;3.10;;
10410;SDS011;5251;52.112;8.606;2022-09-12T17:23:45;3.50;;;3.20;;
10410;SDS011;5251;52.112;8.606;2022-09-12T17:26:11;3.35;;;2.90;;